Seatonville, Illinois
Current Conditions -  °F | °C
As of 3:35 PM on Friday 19 Dec 2014 (Local Time) from KVYS Reporting Station
Overcast Overcast  
Wind Chill: 27°   Ceiling: 2300
Heat Index: 32°   Visibility: 10mi
Dew Point: 23°   Wind: 5mph
Humidity: 70%   Direction: 210°SSW
Pressure: 30.33"   Gusts: NA
Location:  41.36°N, 89.28°W
Report Text: KVYS 192135Z AUTO 21004KT 10SM OVC023 00/M05 A3033 RMK AO2 T10021050
Loading
Personal Weather Stations






























Interactive Weather Map New forecast layout! Learn more

10-Day Weather Forecast

Advertisements
Track Severe Weather on mobile